Main page
METAR-TAF:

METAR-TAF

Airports :

Ilam Airport

Ilam, Iran

latitude: 33-35-09N, longitude: 046-24-20E, elevation: 1334 m

Current weather observation

The report was made 56 minutes ago, at 00:00 UTC
Wind 4 kt from the East/Southeast
Temperature 22°C
Humidity 27%
Pressure 1013 hPa
Visibility 10 km or more
no clouds below 1500 m and no cumulonimbus

METAR: OICI 210000Z 11004KT CAVOK 22/02 Q1012 A2991

Time: 05:26 (00:56 UTC)

Forecast

The report was made 1 hour and 56 minutes ago, at 23:00 UTC
Forecast valid from 21 at 00 UTC to 22 at 06 UTC
Wind 8 kt from the Northeast
Visibility 10 km or more
no clouds below 1500 m and no cumulonimbus
Temporary
from 21 at 12 UTC to 21 at 15 UTC
Wind 14 kt from the West with gusts up to 23 kt
Visibility: 5000 m
sand

TAF: OICI 202300Z 2100/2206 05004MPS CAVOK TEMPO 2112/2115 27007G12MPS 5000 SA

Weather observations and forecasts of more than 4000 airports (METAR and TAF reports).

The available stations are represented by yellow and red dots on the map.

Hover mouse over dot to see the name of the station.

Then click to see weather observations and forecasts.

To change the map : click on the green buttons with a black cross to zoom in, on the green button with a dash to zoom out, or on the green arrows for adjacent maps.


METAR-TAF: